sensor_id;sensor_type;location;lat;lon;timestamp;P1;durP1;ratioP1;P2;durP2;ratioP2
42094;SDS011;27753;55.724;37.612;2023-03-20T00:00:49;14.70;;;8.17;;
42094;SDS011;27753;55.724;37.612;2023-03-20T00:03:16;13.38;;;7.40;;
42094;SDS011;27753;55.724;37.612;2023-03-20T00:05:42;12.45;;;6.90;;
42094;SDS011;27753;55.724;37.612;2023-03-20T00:08:08;14.50;;;8.63;;
42094;SDS011;27753;55.724;37.612;2023-03-20T00:10:35;10.80;;;7.85;;
42094;SDS011;27753;55.724;37.612;2023-03-20T00:13:07;14.60;;;7.18;;
42094;SDS011;27753;55.724;37.612;2023-03-20T00:15:42;15.15;;;9.85;;
42094;SDS011;27753;55.724;37.612;2023-03-20T00:18:12;13.15;;;7.80;;
42094;SDS011;27753;55.724;37.612;2023-03-20T00:20:45;16.10;;;8.90;;
42094;SDS011;27753;55.724;37.612;2023-03-20T00:23:11;19.08;;;8.90;;
42094;SDS011;27753;55.724;37.612;2023-03-20T00:25:37;14.82;;;9.38;;
42094;SDS011;27753;55.724;37.612;2023-03-20T00:31:09;16.13;;;9.05;;
42094;SDS011;27753;55.724;37.612;2023-03-20T00:33:59;15.95;;;9.65;;
42094;SDS011;27753;55.724;37.612;2023-03-20T00:36:27;14.45;;;8.60;;
42094;SDS011;27753;55.724;37.612;2023-03-20T00:38:54;14.65;;;8.15;;
42094;SDS011;27753;55.724;37.612;2023-03-20T00:44:00;16.75;;;8.75;;
42094;SDS011;27753;55.724;37.612;2023-03-20T00:46:28;16.13;;;8.93;;
42094;SDS011;27753;55.724;37.612;2023-03-20T00:48:59;17.60;;;9.80;;
42094;SDS011;27753;55.724;37.612;2023-03-20T00:51:25;14.52;;;8.55;;
42094;SDS011;27753;55.724;37.612;2023-03-20T00:53:51;15.52;;;8.63;;
42094;SDS011;27753;55.724;37.612;2023-03-20T00:56:34;12.68;;;7.95;;
42094;SDS011;27753;55.724;37.612;2023-03-20T00:59:04;18.08;;;8.95;;
42094;SDS011;27753;55.724;37.612;2023-03-20T01:01:30;16.23;;;8.90;;
42094;SDS011;27753;55.724;37.612;2023-03-20T01:03:56;17.10;;;9.02;;
42094;SDS011;27753;55.724;37.612;2023-03-20T01:06:23;14.48;;;9.15;;
42094;SDS011;27753;55.724;37.612;2023-03-20T01:08:49;16.42;;;7.88;;
42094;SDS011;27753;55.724;37.612;2023-03-20T01:11:20;15.63;;;7.55;;
42094;SDS011;27753;55.724;37.612;2023-03-20T01:13:47;14.10;;;8.18;;
42094;SDS011;27753;55.724;37.612;2023-03-20T01:16:18;13.13;;;8.00;;
42094;SDS011;27753;55.724;37.612;2023-03-20T01:18:46;11.35;;;7.65;;
42094;SDS011;27753;55.724;37.612;2023-03-20T01:21:13;14.88;;;8.23;;
42094;SDS011;27753;55.724;37.612;2023-03-20T01:23:38;15.05;;;8.50;;
42094;SDS011;27753;55.724;37.612;2023-03-20T01:26:27;11.63;;;7.90;;
42094;SDS011;27753;55.724;37.612;2023-03-20T01:28:51;11.95;;;8.50;;
42094;SDS011;27753;55.724;37.612;2023-03-20T01:31:17;14.82;;;8.98;;
42094;SDS011;27753;55.724;37.612;2023-03-20T01:33:43;12.63;;;8.52;;
42094;SDS011;27753;55.724;37.612;2023-03-20T01:36:11;11.90;;;7.70;;
42094;SDS011;27753;55.724;37.612;2023-03-20T01:38:39;15.25;;;8.35;;
42094;SDS011;27753;55.724;37.612;2023-03-20T01:41:13;13.48;;;7.15;;
42094;SDS011;27753;55.724;37.612;2023-03-20T01:43:41;12.88;;;7.97;;
42094;SDS011;27753;55.724;37.612;2023-03-20T01:51:17;14.40;;;8.50;;
42094;SDS011;27753;55.724;37.612;2023-03-20T01:53:58;14.82;;;8.05;;
42094;SDS011;27753;55.724;37.612;2023-03-20T01:56:39;11.13;;;7.72;;
42094;SDS011;27753;55.724;37.612;2023-03-20T01:59:13;12.60;;;7.03;;
42094;SDS011;27753;55.724;37.612;2023-03-20T02:01:44;15.43;;;7.68;;
42094;SDS011;27753;55.724;37.612;2023-03-20T02:04:10;13.23;;;7.68;;
42094;SDS011;27753;55.724;37.612;2023-03-20T02:06:38;12.85;;;8.23;;
42094;SDS011;27753;55.724;37.612;2023-03-20T02:09:05;15.82;;;7.88;;
42094;SDS011;27753;55.724;37.612;2023-03-20T02:11:32;9.85;;;7.32;;
42094;SDS011;27753;55.724;37.612;2023-03-20T02:14:00;11.15;;;7.65;;
42094;SDS011;27753;55.724;37.612;2023-03-20T02:16:27;12.48;;;8.25;;
42094;SDS011;27753;55.724;37.612;2023-03-20T02:18:53;12.27;;;7.65;;
42094;SDS011;27753;55.724;37.612;2023-03-20T02:35:36;13.52;;;8.73;;
42094;SDS011;27753;55.724;37.612;2023-03-20T02:41:16;12.93;;;7.68;;
42094;SDS011;27753;55.724;37.612;2023-03-20T02:44:13;14.68;;;8.82;;
42094;SDS011;27753;55.724;37.612;2023-03-20T02:46:56;12.45;;;7.82;;
42094;SDS011;27753;55.724;37.612;2023-03-20T02:52:32;11.43;;;7.38;;
42094;SDS011;27753;55.724;37.612;2023-03-20T02:58:12;12.40;;;7.88;;
42094;SDS011;27753;55.724;37.612;2023-03-20T03:03:43;11.77;;;7.85;;
42094;SDS011;27753;55.724;37.612;2023-03-20T03:11:37;14.90;;;9.02;;
42094;SDS011;27753;55.724;37.612;2023-03-20T03:14:09;17.30;;;9.65;;
42094;SDS011;27753;55.724;37.612;2023-03-20T03:16:43;14.38;;;9.32;;
42094;SDS011;27753;55.724;37.612;2023-03-20T03:19:13;17.30;;;8.52;;
42094;SDS011;27753;55.724;37.612;2023-03-20T03:21:43;12.57;;;7.43;;
42094;SDS011;27753;55.724;37.612;2023-03-20T03:24:31;10.77;;;7.32;;
42094;SDS011;27753;55.724;37.612;2023-03-20T03:29:29;9.85;;;5.88;;
42094;SDS011;27753;55.724;37.612;2023-03-20T03:32:00;10.98;;;5.80;;
42094;SDS011;27753;55.724;37.612;2023-03-20T03:34:27;15.13;;;9.35;;
42094;SDS011;27753;55.724;37.612;2023-03-20T03:37:08;11.15;;;6.93;;
42094;SDS011;27753;55.724;37.612;2023-03-20T03:39:53;17.10;;;9.43;;
42094;SDS011;27753;55.724;37.612;2023-03-20T03:42:52;9.30;;;6.05;;
42094;SDS011;27753;55.724;37.612;2023-03-20T03:48:23;11.10;;;5.93;;
42094;SDS011;27753;55.724;37.612;2023-03-20T03:50:56;9.73;;;6.50;;
42094;SDS011;27753;55.724;37.612;2023-03-20T03:53:35;11.50;;;5.72;;
42094;SDS011;27753;55.724;37.612;2023-03-20T03:56:04;11.00;;;6.35;;
42094;SDS011;27753;55.724;37.612;2023-03-20T03:58:39;10.93;;;6.75;;
42094;SDS011;27753;55.724;37.612;2023-03-20T04:01:11;17.17;;;6.65;;
42094;SDS011;27753;55.724;37.612;2023-03-20T04:03:50;10.55;;;5.45;;
42094;SDS011;27753;55.724;37.612;2023-03-20T04:06:19;11.73;;;5.60;;
42094;SDS011;27753;55.724;37.612;2023-03-20T04:08:45;7.80;;;4.97;;
42094;SDS011;27753;55.724;37.612;2023-03-20T04:11:14;8.57;;;6.60;;
42094;SDS011;27753;55.724;37.612;2023-03-20T04:13:42;9.50;;;6.22;;
42094;SDS011;27753;55.724;37.612;2023-03-20T04:16:11;10.15;;;5.70;;
42094;SDS011;27753;55.724;37.612;2023-03-20T04:18:40;9.30;;;6.18;;
42094;SDS011;27753;55.724;37.612;2023-03-20T04:21:07;11.23;;;6.80;;
42094;SDS011;27753;55.724;37.612;2023-03-20T04:23:33;16.77;;;6.65;;
42094;SDS011;27753;55.724;37.612;2023-03-20T04:25:59;9.82;;;6.43;;
42094;SDS011;27753;55.724;37.612;2023-03-20T04:28:26;11.45;;;8.70;;
42094;SDS011;27753;55.724;37.612;2023-03-20T04:30:56;15.40;;;9.20;;
42094;SDS011;27753;55.724;37.612;2023-03-20T04:33:24;15.18;;;9.30;;
42094;SDS011;27753;55.724;37.612;2023-03-20T04:35:51;21.00;;;9.38;;
42094;SDS011;27753;55.724;37.612;2023-03-20T04:38:18;13.93;;;9.43;;
42094;SDS011;27753;55.724;37.612;2023-03-20T04:40:44;13.32;;;7.97;;
42094;SDS011;27753;55.724;37.612;2023-03-20T04:43:12;14.80;;;7.40;;
42094;SDS011;27753;55.724;37.612;2023-03-20T04:45:38;16.67;;;8.75;;
42094;SDS011;27753;55.724;37.612;2023-03-20T04:48:04;16.60;;;9.25;;
42094;SDS011;27753;55.724;37.612;2023-03-20T04:50:32;14.60;;;7.85;;
42094;SDS011;27753;55.724;37.612;2023-03-20T04:52:59;11.93;;;8.93;;
42094;SDS011;27753;55.724;37.612;2023-03-20T04:55:26;15.23;;;7.65;;
42094;SDS011;27753;55.724;37.612;2023-03-20T04:57:52;13.55;;;7.70;;
42094;SDS011;27753;55.724;37.612;2023-03-20T05:00:18;14.38;;;8.30;;
42094;SDS011;27753;55.724;37.612;2023-03-20T05:02:44;13.25;;;6.85;;
42094;SDS011;27753;55.724;37.612;2023-03-20T05:05:10;11.25;;;7.60;;
42094;SDS011;27753;55.724;37.612;2023-03-20T05:07:36;15.27;;;7.35;;
42094;SDS011;27753;55.724;37.612;2023-03-20T05:10:02;12.98;;;6.30;;
42094;SDS011;27753;55.724;37.612;2023-03-20T05:12:29;10.82;;;6.15;;
42094;SDS011;27753;55.724;37.612;2023-03-20T05:14:55;11.55;;;6.28;;
42094;SDS011;27753;55.724;37.612;2023-03-20T05:17:21;9.15;;;5.40;;
42094;SDS011;27753;55.724;37.612;2023-03-20T05:19:48;14.52;;;6.47;;
42094;SDS011;27753;55.724;37.612;2023-03-20T05:22:17;12.75;;;5.50;;
42094;SDS011;27753;55.724;37.612;2023-03-20T05:24:43;12.18;;;4.60;;
42094;SDS011;27753;55.724;37.612;2023-03-20T05:27:09;14.27;;;6.53;;
42094;SDS011;27753;55.724;37.612;2023-03-20T05:29:35;12.35;;;6.38;;
42094;SDS011;27753;55.724;37.612;2023-03-20T05:32:02;9.60;;;5.10;;
42094;SDS011;27753;55.724;37.612;2023-03-20T05:34:28;13.90;;;5.70;;
42094;SDS011;27753;55.724;37.612;2023-03-20T05:36:54;8.20;;;5.18;;
42094;SDS011;27753;55.724;37.612;2023-03-20T05:39:20;9.15;;;5.45;;
42094;SDS011;27753;55.724;37.612;2023-03-20T05:41:46;7.65;;;4.35;;
42094;SDS011;27753;55.724;37.612;2023-03-20T05:44:13;11.82;;;4.70;;
42094;SDS011;27753;55.724;37.612;2023-03-20T05:46:39;13.10;;;5.40;;
42094;SDS011;27753;55.724;37.612;2023-03-20T05:49:07;11.52;;;6.18;;
42094;SDS011;27753;55.724;37.612;2023-03-20T05:51:33;13.65;;;5.65;;
42094;SDS011;27753;55.724;37.612;2023-03-20T05:53:59;14.02;;;5.55;;
42094;SDS011;27753;55.724;37.612;2023-03-20T05:56:25;8.75;;;4.85;;
42094;SDS011;27753;55.724;37.612;2023-03-20T05:58:51;10.45;;;5.47;;
42094;SDS011;27753;55.724;37.612;2023-03-20T06:01:17;13.30;;;4.95;;
42094;SDS011;27753;55.724;37.612;2023-03-20T06:03:46;10.88;;;5.38;;
42094;SDS011;27753;55.724;37.612;2023-03-20T06:06:13;17.73;;;6.50;;
42094;SDS011;27753;55.724;37.612;2023-03-20T06:08:39;12.55;;;5.63;;
42094;SDS011;27753;55.724;37.612;2023-03-20T06:11:05;10.73;;;5.65;;
42094;SDS011;27753;55.724;37.612;2023-03-20T06:13:31;7.93;;;5.00;;
42094;SDS011;27753;55.724;37.612;2023-03-20T06:15:57;8.45;;;4.40;;
42094;SDS011;27753;55.724;37.612;2023-03-20T06:18:23;20.90;;;6.15;;
42094;SDS011;27753;55.724;37.612;2023-03-20T06:20:53;12.27;;;5.07;;
42094;SDS011;27753;55.724;37.612;2023-03-20T06:23:20;13.38;;;4.95;;
42094;SDS011;27753;55.724;37.612;2023-03-20T06:25:46;10.13;;;5.07;;
42094;SDS011;27753;55.724;37.612;2023-03-20T06:28:13;17.85;;;6.68;;
42094;SDS011;27753;55.724;37.612;2023-03-20T06:30:39;14.48;;;5.53;;
42094;SDS011;27753;55.724;37.612;2023-03-20T06:33:05;12.45;;;5.90;;
42094;SDS011;27753;55.724;37.612;2023-03-20T06:35:32;13.70;;;7.10;;
42094;SDS011;27753;55.724;37.612;2023-03-20T06:37:58;19.95;;;7.22;;
42094;SDS011;27753;55.724;37.612;2023-03-20T06:40:24;13.25;;;5.70;;
42094;SDS011;27753;55.724;37.612;2023-03-20T06:42:51;9.98;;;5.40;;
42094;SDS011;27753;55.724;37.612;2023-03-20T06:45:18;10.60;;;5.05;;
42094;SDS011;27753;55.724;37.612;2023-03-20T06:47:45;13.80;;;6.60;;
42094;SDS011;27753;55.724;37.612;2023-03-20T06:50:11;11.90;;;6.13;;
42094;SDS011;27753;55.724;37.612;2023-03-20T06:52:38;12.38;;;5.10;;
42094;SDS011;27753;55.724;37.612;2023-03-20T06:55:05;13.07;;;5.22;;
42094;SDS011;27753;55.724;37.612;2023-03-20T06:57:32;9.35;;;6.10;;
42094;SDS011;27753;55.724;37.612;2023-03-20T06:59:58;24.55;;;6.80;;
42094;SDS011;27753;55.724;37.612;2023-03-20T07:02:24;11.57;;;6.03;;
42094;SDS011;27753;55.724;37.612;2023-03-20T07:04:50;15.55;;;7.45;;
42094;SDS011;27753;55.724;37.612;2023-03-20T07:07:16;14.70;;;7.15;;
42094;SDS011;27753;55.724;37.612;2023-03-20T07:09:43;14.18;;;7.35;;
42094;SDS011;27753;55.724;37.612;2023-03-20T07:12:13;20.80;;;7.18;;
42094;SDS011;27753;55.724;37.612;2023-03-20T07:14:40;20.35;;;7.15;;
42094;SDS011;27753;55.724;37.612;2023-03-20T07:17:07;14.80;;;6.47;;
42094;SDS011;27753;55.724;37.612;2023-03-20T07:19:34;14.23;;;6.47;;
42094;SDS011;27753;55.724;37.612;2023-03-20T07:22:02;12.57;;;6.38;;
42094;SDS011;27753;55.724;37.612;2023-03-20T07:24:30;14.60;;;7.30;;
42094;SDS011;27753;55.724;37.612;2023-03-20T07:26:56;16.33;;;6.38;;
42094;SDS011;27753;55.724;37.612;2023-03-20T07:29:22;20.45;;;8.63;;
42094;SDS011;27753;55.724;37.612;2023-03-20T07:31:48;17.33;;;7.28;;
42094;SDS011;27753;55.724;37.612;2023-03-20T07:34:14;13.52;;;6.85;;
42094;SDS011;27753;55.724;37.612;2023-03-20T07:36:40;13.57;;;6.88;;
42094;SDS011;27753;55.724;37.612;2023-03-20T07:39:07;16.63;;;7.70;;
42094;SDS011;27753;55.724;37.612;2023-03-20T07:41:33;13.10;;;6.15;;
42094;SDS011;27753;55.724;37.612;2023-03-20T07:44:00;18.58;;;6.75;;
42094;SDS011;27753;55.724;37.612;2023-03-20T07:46:26;12.82;;;7.68;;
42094;SDS011;27753;55.724;37.612;2023-03-20T07:48:52;14.63;;;7.70;;
42094;SDS011;27753;55.724;37.612;2023-03-20T07:51:18;19.85;;;7.13;;
42094;SDS011;27753;55.724;37.612;2023-03-20T07:53:44;14.15;;;6.65;;
42094;SDS011;27753;55.724;37.612;2023-03-20T07:56:10;13.20;;;6.38;;
42094;SDS011;27753;55.724;37.612;2023-03-20T07:58:36;15.73;;;8.32;;
42094;SDS011;27753;55.724;37.612;2023-03-20T08:01:02;13.52;;;6.85;;
42094;SDS011;27753;55.724;37.612;2023-03-20T08:03:28;15.40;;;8.10;;
42094;SDS011;27753;55.724;37.612;2023-03-20T08:05:54;18.48;;;7.53;;
42094;SDS011;27753;55.724;37.612;2023-03-20T08:08:20;16.60;;;7.90;;
42094;SDS011;27753;55.724;37.612;2023-03-20T08:10:46;16.90;;;7.50;;
42094;SDS011;27753;55.724;37.612;2023-03-20T08:13:12;8.23;;;5.90;;
42094;SDS011;27753;55.724;37.612;2023-03-20T08:15:39;9.85;;;6.00;;
42094;SDS011;27753;55.724;37.612;2023-03-20T08:18:05;10.20;;;6.15;;
42094;SDS011;27753;55.724;37.612;2023-03-20T08:20:31;6.38;;;5.15;;
42094;SDS011;27753;55.724;37.612;2023-03-20T08:22:57;10.60;;;5.68;;
42094;SDS011;27753;55.724;37.612;2023-03-20T08:25:23;11.25;;;5.82;;
42094;SDS011;27753;55.724;37.612;2023-03-20T08:27:49;7.60;;;5.60;;
42094;SDS011;27753;55.724;37.612;2023-03-20T08:30:15;12.27;;;6.00;;
42094;SDS011;27753;55.724;37.612;2023-03-20T08:32:41;13.75;;;7.32;;
42094;SDS011;27753;55.724;37.612;2023-03-20T08:35:07;7.85;;;5.90;;
42094;SDS011;27753;55.724;37.612;2023-03-20T08:37:34;9.75;;;6.50;;
42094;SDS011;27753;55.724;37.612;2023-03-20T08:40:02;7.53;;;5.47;;
42094;SDS011;27753;55.724;37.612;2023-03-20T08:42:29;11.07;;;5.95;;
42094;SDS011;27753;55.724;37.612;2023-03-20T08:44:56;11.88;;;5.38;;
42094;SDS011;27753;55.724;37.612;2023-03-20T08:47:24;8.90;;;6.93;;
42094;SDS011;27753;55.724;37.612;2023-03-20T08:49:51;9.90;;;6.05;;
42094;SDS011;27753;55.724;37.612;2023-03-20T08:52:17;10.45;;;6.30;;
42094;SDS011;27753;55.724;37.612;2023-03-20T08:54:43;8.55;;;6.13;;
42094;SDS011;27753;55.724;37.612;2023-03-20T08:57:09;11.15;;;5.88;;
42094;SDS011;27753;55.724;37.612;2023-03-20T08:59:36;7.93;;;6.73;;
42094;SDS011;27753;55.724;37.612;2023-03-20T09:02:01;9.75;;;6.38;;
42094;SDS011;27753;55.724;37.612;2023-03-20T09:04:27;11.32;;;6.00;;
42094;SDS011;27753;55.724;37.612;2023-03-20T09:06:53;10.82;;;5.70;;
42094;SDS011;27753;55.724;37.612;2023-03-20T09:09:20;9.60;;;5.75;;
42094;SDS011;27753;55.724;37.612;2023-03-20T09:11:51;12.63;;;6.13;;
42094;SDS011;27753;55.724;37.612;2023-03-20T09:14:18;10.18;;;5.85;;
42094;SDS011;27753;55.724;37.612;2023-03-20T09:16:43;11.02;;;5.38;;
42094;SDS011;27753;55.724;37.612;2023-03-20T09:19:10;7.85;;;5.72;;
42094;SDS011;27753;55.724;37.612;2023-03-20T09:21:36;7.93;;;5.32;;
42094;SDS011;27753;55.724;37.612;2023-03-20T09:24:02;7.57;;;5.35;;
42094;SDS011;27753;55.724;37.612;2023-03-20T09:26:29;9.38;;;5.07;;
42094;SDS011;27753;55.724;37.612;2023-03-20T09:28:55;8.65;;;5.55;;
42094;SDS011;27753;55.724;37.612;2023-03-20T09:31:21;9.70;;;6.10;;
42094;SDS011;27753;55.724;37.612;2023-03-20T09:33:47;10.25;;;6.28;;
42094;SDS011;27753;55.724;37.612;2023-03-20T09:36:13;8.45;;;5.95;;
42094;SDS011;27753;55.724;37.612;2023-03-20T09:38:40;10.00;;;6.07;;
42094;SDS011;27753;55.724;37.612;2023-03-20T09:41:06;11.20;;;6.10;;
42094;SDS011;27753;55.724;37.612;2023-03-20T09:48:50;10.30;;;6.88;;
42094;SDS011;27753;55.724;37.612;2023-03-20T09:51:56;12.25;;;6.15;;
42094;SDS011;27753;55.724;37.612;2023-03-20T09:54:44;8.55;;;5.57;;
42094;SDS011;27753;55.724;37.612;2023-03-20T09:57:36;7.72;;;5.45;;
42094;SDS011;27753;55.724;37.612;2023-03-20T10:00:09;6.70;;;5.57;;
42094;SDS011;27753;55.724;37.612;2023-03-20T10:03:04;12.25;;;6.40;;
42094;SDS011;27753;55.724;37.612;2023-03-20T10:05:42;11.02;;;7.55;;
42094;SDS011;27753;55.724;37.612;2023-03-20T10:08:31;10.52;;;5.63;;
42094;SDS011;27753;55.724;37.612;2023-03-20T10:19:48;8.02;;;5.88;;
42094;SDS011;27753;55.724;37.612;2023-03-20T10:22:31;8.07;;;5.05;;
42094;SDS011;27753;55.724;37.612;2023-03-20T10:25:03;8.43;;;5.40;;
42094;SDS011;27753;55.724;37.612;2023-03-20T10:27:33;9.50;;;5.70;;
42094;SDS011;27753;55.724;37.612;2023-03-20T10:35:27;11.40;;;6.07;;
42094;SDS011;27753;55.724;37.612;2023-03-20T10:40:49;8.85;;;5.90;;
42094;SDS011;27753;55.724;37.612;2023-03-20T10:43:19;10.10;;;5.35;;
42094;SDS011;27753;55.724;37.612;2023-03-20T10:45:52;11.38;;;6.63;;
42094;SDS011;27753;55.724;37.612;2023-03-20T10:48:37;8.18;;;6.60;;
42094;SDS011;27753;55.724;37.612;2023-03-20T10:51:17;14.02;;;8.20;;
42094;SDS011;27753;55.724;37.612;2023-03-20T10:53:46;7.82;;;5.70;;
42094;SDS011;27753;55.724;37.612;2023-03-20T10:59:07;14.38;;;7.25;;
42094;SDS011;27753;55.724;37.612;2023-03-20T11:01:55;14.70;;;6.47;;
42094;SDS011;27753;55.724;37.612;2023-03-20T11:04:21;11.63;;;6.80;;
42094;SDS011;27753;55.724;37.612;2023-03-20T11:09:25;10.82;;;6.80;;
42094;SDS011;27753;55.724;37.612;2023-03-20T11:11:57;13.75;;;7.22;;
42094;SDS011;27753;55.724;37.612;2023-03-20T11:14:27;11.43;;;7.13;;
42094;SDS011;27753;55.724;37.612;2023-03-20T11:17:00;13.25;;;7.28;;
42094;SDS011;27753;55.724;37.612;2023-03-20T11:19:31;10.32;;;6.70;;
42094;SDS011;27753;55.724;37.612;2023-03-20T11:21:59;10.40;;;6.68;;
42094;SDS011;27753;55.724;37.612;2023-03-20T11:27:08;14.38;;;8.85;;
42094;SDS011;27753;55.724;37.612;2023-03-20T11:29:40;10.50;;;7.47;;
42094;SDS011;27753;55.724;37.612;2023-03-20T11:32:14;13.20;;;7.47;;
42094;SDS011;27753;55.724;37.612;2023-03-20T11:34:53;10.95;;;7.20;;
42094;SDS011;27753;55.724;37.612;2023-03-20T11:37:26;15.93;;;7.63;;
42094;SDS011;27753;55.724;37.612;2023-03-20T11:39:58;9.88;;;6.57;;
42094;SDS011;27753;55.724;37.612;2023-03-20T11:42:54;12.07;;;7.05;;
42094;SDS011;27753;55.724;37.612;2023-03-20T11:45:34;17.40;;;6.75;;
42094;SDS011;27753;55.724;37.612;2023-03-20T11:48:05;9.68;;;7.13;;
42094;SDS011;27753;55.724;37.612;2023-03-20T11:50:43;11.98;;;8.13;;
42094;SDS011;27753;55.724;37.612;2023-03-20T11:53:20;14.48;;;7.32;;
42094;SDS011;27753;55.724;37.612;2023-03-20T11:56:03;15.27;;;8.15;;
42094;SDS011;27753;55.724;37.612;2023-03-20T11:58:46;9.57;;;5.82;;
42094;SDS011;27753;55.724;37.612;2023-03-20T12:01:23;13.30;;;6.32;;
42094;SDS011;27753;55.724;37.612;2023-03-20T12:06:26;9.77;;;6.50;;
42094;SDS011;27753;55.724;37.612;2023-03-20T12:09:27;10.93;;;6.03;;
42094;SDS011;27753;55.724;37.612;2023-03-20T12:12:17;10.77;;;6.88;;
42094;SDS011;27753;55.724;37.612;2023-03-20T12:23:19;11.50;;;6.90;;
42094;SDS011;27753;55.724;37.612;2023-03-20T12:25:58;15.15;;;6.97;;
42094;SDS011;27753;55.724;37.612;2023-03-20T12:28:33;12.32;;;6.57;;
42094;SDS011;27753;55.724;37.612;2023-03-20T12:33:48;12.82;;;6.40;;
42094;SDS011;27753;55.724;37.612;2023-03-20T12:36:38;11.73;;;6.30;;
42094;SDS011;27753;55.724;37.612;2023-03-20T12:39:15;7.63;;;5.97;;
42094;SDS011;27753;55.724;37.612;2023-03-20T12:44:28;9.60;;;5.90;;
42094;SDS011;27753;55.724;37.612;2023-03-20T12:47:20;9.80;;;6.28;;
42094;SDS011;27753;55.724;37.612;2023-03-20T12:55:20;11.90;;;6.75;;
42094;SDS011;27753;55.724;37.612;2023-03-20T13:00:33;8.65;;;5.75;;
42094;SDS011;27753;55.724;37.612;2023-03-20T13:03:05;9.25;;;6.22;;
42094;SDS011;27753;55.724;37.612;2023-03-20T13:17:27;12.98;;;6.65;;
42094;SDS011;27753;55.724;37.612;2023-03-20T13:31:26;7.32;;;5.35;;
42094;SDS011;27753;55.724;37.612;2023-03-20T13:39:45;11.88;;;5.25;;
42094;SDS011;27753;55.724;37.612;2023-03-20T13:42:37;7.65;;;5.35;;
42094;SDS011;27753;55.724;37.612;2023-03-20T13:48:11;11.07;;;7.80;;
42094;SDS011;27753;55.724;37.612;2023-03-20T13:56:32;10.93;;;6.70;;
42094;SDS011;27753;55.724;37.612;2023-03-20T14:04:11;10.43;;;6.60;;
42094;SDS011;27753;55.724;37.612;2023-03-20T14:06:43;12.45;;;6.80;;
42094;SDS011;27753;55.724;37.612;2023-03-20T14:09:24;9.20;;;5.20;;
42094;SDS011;27753;55.724;37.612;2023-03-20T14:12:07;8.50;;;3.83;;
42094;SDS011;27753;55.724;37.612;2023-03-20T14:14:45;9.75;;;5.38;;
42094;SDS011;27753;55.724;37.612;2023-03-20T14:19:57;15.82;;;9.27;;
42094;SDS011;27753;55.724;37.612;2023-03-20T14:22:47;18.90;;;9.98;;
42094;SDS011;27753;55.724;37.612;2023-03-20T14:25:19;20.35;;;10.75;;
42094;SDS011;27753;55.724;37.612;2023-03-20T14:28:04;20.10;;;10.82;;
42094;SDS011;27753;55.724;37.612;2023-03-20T14:33:06;18.85;;;11.55;;
42094;SDS011;27753;55.724;37.612;2023-03-20T14:35:42;23.65;;;12.43;;
42094;SDS011;27753;55.724;37.612;2023-03-20T14:41:39;17.88;;;10.35;;
42094;SDS011;27753;55.724;37.612;2023-03-20T14:44:21;21.60;;;10.15;;
42094;SDS011;27753;55.724;37.612;2023-03-20T14:47:15;15.18;;;8.27;;
42094;SDS011;27753;55.724;37.612;2023-03-20T14:49:56;11.65;;;6.10;;
42094;SDS011;27753;55.724;37.612;2023-03-20T14:55:26;11.15;;;6.38;;
42094;SDS011;27753;55.724;37.612;2023-03-20T14:57:55;8.48;;;6.07;;
42094;SDS011;27753;55.724;37.612;2023-03-20T15:00:28;7.22;;;4.80;;
42094;SDS011;27753;55.724;37.612;2023-03-20T15:03:05;10.60;;;5.80;;
42094;SDS011;27753;55.724;37.612;2023-03-20T15:05:32;9.77;;;6.05;;
42094;SDS011;27753;55.724;37.612;2023-03-20T15:08:04;8.90;;;5.95;;
42094;SDS011;27753;55.724;37.612;2023-03-20T15:10:33;9.38;;;5.10;;
42094;SDS011;27753;55.724;37.612;2023-03-20T15:13:04;12.18;;;6.25;;
42094;SDS011;27753;55.724;37.612;2023-03-20T15:15:31;14.65;;;5.78;;
42094;SDS011;27753;55.724;37.612;2023-03-20T15:18:09;9.27;;;6.07;;
42094;SDS011;27753;55.724;37.612;2023-03-20T15:20:37;9.27;;;4.78;;
42094;SDS011;27753;55.724;37.612;2023-03-20T15:23:03;7.55;;;4.13;;
42094;SDS011;27753;55.724;37.612;2023-03-20T15:25:43;9.67;;;5.77;;
42094;SDS011;27753;55.724;37.612;2023-03-20T15:28:12;11.85;;;5.55;;
42094;SDS011;27753;55.724;37.612;2023-03-20T15:30:50;9.63;;;5.55;;
42094;SDS011;27753;55.724;37.612;2023-03-20T15:33:38;7.68;;;4.75;;
42094;SDS011;27753;55.724;37.612;2023-03-20T15:36:12;11.05;;;4.75;;
42094;SDS011;27753;55.724;37.612;2023-03-20T15:38:45;9.60;;;4.30;;
42094;SDS011;27753;55.724;37.612;2023-03-20T15:41:25;8.32;;;5.63;;
42094;SDS011;27753;55.724;37.612;2023-03-20T15:44:11;12.15;;;4.50;;
42094;SDS011;27753;55.724;37.612;2023-03-20T15:47:40;11.95;;;5.38;;
42094;SDS011;27753;55.724;37.612;2023-03-20T15:49:35;7.80;;;4.90;;
42094;SDS011;27753;55.724;37.612;2023-03-20T15:52:18;11.40;;;6.13;;
42094;SDS011;27753;55.724;37.612;2023-03-20T15:54:46;12.93;;;7.47;;
42094;SDS011;27753;55.724;37.612;2023-03-20T15:57:24;7.70;;;4.85;;
42094;SDS011;27753;55.724;37.612;2023-03-20T15:59:57;8.05;;;5.70;;
42094;SDS011;27753;55.724;37.612;2023-03-20T16:02:24;8.82;;;4.78;;
42094;SDS011;27753;55.724;37.612;2023-03-20T16:04:52;7.00;;;5.18;;
42094;SDS011;27753;55.724;37.612;2023-03-20T16:07:36;4.95;;;4.18;;
42094;SDS011;27753;55.724;37.612;2023-03-20T16:10:02;8.65;;;4.75;;
42094;SDS011;27753;55.724;37.612;2023-03-20T16:12:45;8.18;;;4.93;;
42094;SDS011;27753;55.724;37.612;2023-03-20T16:15:14;9.63;;;5.57;;
42094;SDS011;27753;55.724;37.612;2023-03-20T16:17:41;7.00;;;4.82;;
42094;SDS011;27753;55.724;37.612;2023-03-20T16:20:14;8.60;;;5.18;;
42094;SDS011;27753;55.724;37.612;2023-03-20T16:22:42;8.38;;;4.75;;
42094;SDS011;27753;55.724;37.612;2023-03-20T16:25:11;10.70;;;4.20;;
42094;SDS011;27753;55.724;37.612;2023-03-20T16:27:39;8.68;;;4.90;;
42094;SDS011;27753;55.724;37.612;2023-03-20T16:30:08;7.60;;;4.67;;
42094;SDS011;27753;55.724;37.612;2023-03-20T16:32:40;8.77;;;5.13;;
42094;SDS011;27753;55.724;37.612;2023-03-20T16:35:18;7.18;;;4.45;;
42094;SDS011;27753;55.724;37.612;2023-03-20T16:37:47;15.85;;;5.78;;
42094;SDS011;27753;55.724;37.612;2023-03-20T16:40:21;7.90;;;5.25;;
42094;SDS011;27753;55.724;37.612;2023-03-20T16:43:15;9.10;;;5.47;;
42094;SDS011;27753;55.724;37.612;2023-03-20T16:45:44;9.50;;;5.35;;
42094;SDS011;27753;55.724;37.612;2023-03-20T16:50:41;7.90;;;5.15;;
42094;SDS011;27753;55.724;37.612;2023-03-20T16:53:09;8.32;;;5.18;;
42094;SDS011;27753;55.724;37.612;2023-03-20T16:55:42;14.18;;;5.78;;
42094;SDS011;27753;55.724;37.612;2023-03-20T16:58:13;12.45;;;5.15;;
42094;SDS011;27753;55.724;37.612;2023-03-20T17:01:00;5.90;;;4.18;;
42094;SDS011;27753;55.724;37.612;2023-03-20T17:03:33;11.60;;;5.03;;
42094;SDS011;27753;55.724;37.612;2023-03-20T17:08:50;12.63;;;5.03;;
42094;SDS011;27753;55.724;37.612;2023-03-20T17:11:22;8.95;;;4.82;;
42094;SDS011;27753;55.724;37.612;2023-03-20T17:13:56;5.88;;;4.97;;
42094;SDS011;27753;55.724;37.612;2023-03-20T17:16:21;11.38;;;5.97;;
42094;SDS011;27753;55.724;37.612;2023-03-20T17:18:59;10.35;;;5.25;;
42094;SDS011;27753;55.724;37.612;2023-03-20T17:21:27;12.35;;;5.53;;
42094;SDS011;27753;55.724;37.612;2023-03-20T17:23:53;9.00;;;4.97;;
42094;SDS011;27753;55.724;37.612;2023-03-20T17:26:19;11.23;;;6.28;;
42094;SDS011;27753;55.724;37.612;2023-03-20T17:28:45;13.98;;;5.88;;
42094;SDS011;27753;55.724;37.612;2023-03-20T17:31:12;12.17;;;5.33;;